Time;durP1;ratioP1;P1;durP2;ratioP2;P2;SDS_P1;SDS_P2;PMS_P1;PMS_P2;Temp;Humidity;BMP_temperature;BMP_pressure;BME280_temperature;BME280_humidity;BME280_pressure;Samples;Min_cycle;Max_cycle;Signal;HPM_P1;HPM_P2
2022/08/27 00:02:07;;;;;;;4.90;1.92;;;18.60;99.90;;;;;;5023209;28;20049;-83
2022/08/27 00:04:34;;;;;;;4.20;2.00;;;18.50;99.90;;;;;;5039183;28;20149;-83
2022/08/27 00:07:01;;;;;;;5.53;2.22;;;18.50;99.90;;;;;;5038977;28;20359;-83
2022/08/27 00:09:27;;;;;;;4.85;2.15;;;18.40;99.90;;;;;;5037722;28;20046;-83
2022/08/27 00:11:55;;;;;;;3.60;2.13;;;18.40;99.90;;;;;;5021390;28;20124;-81
2022/08/27 00:14:21;;;;;;;4.38;2.28;;;18.30;99.90;;;;;;5023924;28;20048;-81
2022/08/27 00:16:47;;;;;;;3.85;2.40;;;18.30;99.90;;;;;;5038604;28;20057;-80
2022/08/27 00:19:13;;;;;;;5.05;2.35;;;18.30;99.90;;;;;;5021208;28;20487;-81
2022/08/27 00:21:38;;;;;;;4.55;2.30;;;18.20;99.90;;;;;;5037709;28;20045;-81
2022/08/27 00:24:04;;;;;;;3.78;2.30;;;18.20;99.90;;;;;;5038366;28;20149;-80
2022/08/27 00:26:30;;;;;;;5.32;2.40;;;18.10;99.90;;;;;;5023213;28;20825;-81
2022/08/27 00:28:56;;;;;;;4.93;2.40;;;18.10;99.90;;;;;;5039418;28;20264;-81
2022/08/27 00:31:22;;;;;;;4.28;2.40;;;18.00;99.90;;;;;;5019783;28;20052;-81
2022/08/27 00:33:47;;;;;;;5.82;2.38;;;18.00;99.90;;;;;;5038653;28;20076;-81
2022/08/27 00:36:13;;;;;;;4.63;2.40;;;17.90;99.90;;;;;;4997544;28;20293;-81
2022/08/27 00:38:40;;;;;;;4.80;2.47;;;17.90;99.90;;;;;;5023786;28;20439;-80
2022/08/27 00:41:08;;;;;;;6.03;2.33;;;17.80;99.90;;;;;;5020341;28;20514;-81
2022/08/27 00:43:51;;;;;;;4.82;2.50;;;17.80;99.90;;;;;;5045544;28;20049;-81
2022/08/27 00:46:32;;;;;;;4.78;2.40;;;17.80;99.90;;;;;;5020773;28;20045;-81
2022/08/27 00:49:05;;;;;;;4.47;2.60;;;17.70;99.90;;;;;;5019390;28;20045;-84
2022/08/27 00:51:31;;;;;;;5.07;2.42;;;17.70;99.90;;;;;;5035484;28;20468;-81
2022/08/27 00:53:58;;;;;;;3.65;2.42;;;17.70;99.90;;;;;;5038131;28;20056;-81
2022/08/27 00:56:28;;;;;;;4.25;2.33;;;17.60;99.90;;;;;;5018968;28;20045;-81
2022/08/27 00:58:55;;;;;;;5.43;2.50;;;17.60;99.90;;;;;;5037235;28;20119;-81
2022/08/27 01:01:29;;;;;;;5.68;2.28;;;17.60;99.90;;;;;;5038205;28;20414;-80
2022/08/27 01:03:58;;;;;;;6.78;2.55;;;17.60;99.90;;;;;;5036085;28;20053;-81
2022/08/27 01:06:30;;;;;;;5.82;2.40;;;17.60;99.90;;;;;;5036312;28;20048;-81
2022/08/27 01:09:03;;;;;;;3.83;2.08;;;17.50;99.90;;;;;;5036392;28;20048;-81
2022/08/27 01:11:30;;;;;;;3.45;1.83;;;17.50;99.90;;;;;;5020565;28;20425;-81
2022/08/27 01:13:56;;;;;;;4.70;2.15;;;17.50;99.90;;;;;;5002980;28;20045;-81
2022/08/27 01:16:27;;;;;;;3.80;1.70;;;17.60;99.90;;;;;;5037978;28;20044;-81
2022/08/27 01:18:54;;;;;;;5.38;1.50;;;17.60;99.90;;;;;;5035866;28;20120;-82
2022/08/27 01:21:32;;;;;;;3.80;1.40;;;17.70;99.90;;;;;;5052603;28;20088;-80
2022/08/27 01:24:08;;;;;;;4.32;1.55;;;17.70;99.90;;;;;;5036663;28;20123;-81
2022/08/27 01:26:35;;;;;;;3.38;1.58;;;17.70;99.90;;;;;;5035347;28;20049;-81
2022/08/27 01:29:01;;;;;;;3.17;1.67;;;17.80;99.90;;;;;;5050766;28;20122;-81
2022/08/27 01:31:28;;;;;;;4.10;1.50;;;17.80;99.90;;;;;;5036219;28;20499;-81
2022/08/27 01:34:03;;;;;;;5.25;1.50;;;17.80;99.90;;;;;;5035784;28;20049;-84
2022/08/27 01:36:30;;;;;;;;;;;17.80;99.90;;;;;;5037684;28;20057;-81
2022/08/27 01:38:56;;;;;;;3.03;1.55;;;17.80;99.90;;;;;;5034247;28;19949;-81
2022/08/27 01:41:23;;;;;;;3.35;1.55;;;17.80;99.90;;;;;;5034530;28;20534;-81
2022/08/27 01:43:49;;;;;;;3.55;1.50;;;17.80;99.90;;;;;;5034549;28;20041;-80
2022/08/27 01:46:19;;;;;;;5.63;1.40;;;17.90;99.90;;;;;;5020446;28;20103;-81
2022/08/27 01:48:45;;;;;;;4.22;1.30;;;17.80;99.90;;;;;;5019175;28;20409;-81
2022/08/27 01:51:11;;;;;;;3.30;1.52;;;17.80;99.90;;;;;;5003445;28;20061;-81
2022/08/27 01:53:37;;;;;;;4.80;1.50;;;17.80;99.90;;;;;;5001517;28;20088;-81
2022/08/27 01:56:03;;;;;;;3.33;1.33;;;17.80;99.90;;;;;;5014994;28;20045;-82
2022/08/27 01:58:30;;;;;;;3.50;1.23;;;17.80;99.90;;;;;;5016872;28;20518;-80
2022/08/27 02:01:01;;;;;;;4.43;1.40;;;17.70;99.90;;;;;;5036079;28;20072;-81
2022/08/27 02:03:27;;;;;;;2.67;1.20;;;17.70;99.90;;;;;;5035500;28;20060;-82
2022/08/27 02:05:53;;;;;;;3.97;1.20;;;17.70;99.90;;;;;;5017276;28;20053;-82
2022/08/27 02:08:20;;;;;;;3.97;1.00;;;17.60;99.90;;;;;;5019469;28;20045;-81
2022/08/27 02:10:47;;;;;;;3.45;1.20;;;17.60;99.90;;;;;;5034662;28;20872;-82
2022/08/27 02:13:14;;;;;;;2.47;0.82;;;17.50;99.90;;;;;;5036387;28;20038;-82
2022/08/27 02:15:41;;;;;;;2.50;1.10;;;17.50;99.90;;;;;;5051811;28;20120;-82
2022/08/27 02:18:09;;;;;;;2.22;0.98;;;17.50;99.90;;;;;;5036861;28;20128;-82
2022/08/27 02:20:35;;;;;;;3.50;1.10;;;17.50;99.90;;;;;;5034752;28;20053;-81
2022/08/27 02:23:01;;;;;;;4.20;1.40;;;17.40;99.90;;;;;;5033700;28;20460;-81
2022/08/27 02:25:27;;;;;;;3.60;1.30;;;17.40;99.90;;;;;;5035320;28;20045;-82
2022/08/27 02:27:54;;;;;;;3.28;1.05;;;17.30;99.90;;;;;;5020714;28;20863;-82
2022/08/27 02:30:21;;;;;;;3.33;0.90;;;17.30;99.90;;;;;;4986639;28;20045;-81
2022/08/27 02:32:48;;;;;;;2.75;1.20;;;17.30;99.90;;;;;;5017178;28;20045;-82
2022/08/27 02:35:15;;;;;;;2.70;1.00;;;17.20;99.90;;;;;;5035047;28;20060;-82
2022/08/27 02:37:42;;;;;;;4.80;1.13;;;17.20;99.90;;;;;;5016336;28;20045;-82
2022/08/27 02:40:10;;;;;;;3.45;1.30;;;17.20;99.90;;;;;;5002828;28;20451;-82
2022/08/27 02:42:35;;;;;;;3.55;1.20;;;17.20;99.90;;;;;;5017871;28;20516;-82
2022/08/27 02:45:01;;;;;;;4.47;1.20;;;17.20;99.90;;;;;;5003063;28;20042;-82
2022/08/27 02:47:28;;;;;;;2.95;1.20;;;17.20;99.90;;;;;;5019687;28;20489;-82
2022/08/27 02:49:54;;;;;;;4.75;1.40;;;17.20;99.90;;;;;;4984649;28;20053;-81
2022/08/27 02:52:20;;;;;;;4.53;1.20;;;17.20;99.90;;;;;;5005226;28;20073;-83
2022/08/27 02:54:46;;;;;;;2.53;1.02;;;17.20;99.90;;;;;;5021688;28;20056;-81
2022/08/27 02:57:12;;;;;;;3.35;1.10;;;17.30;99.90;;;;;;5005979;28;20259;-82
2022/08/27 02:59:38;;;;;;;4.32;1.00;;;17.30;99.90;;;;;;5007350;28;20128;-82
2022/08/27 03:02:04;;;;;;;2.90;1.10;;;17.30;99.90;;;;;;5039790;28;20046;-81
2022/08/27 03:04:30;;;;;;;2.30;1.20;;;17.40;99.90;;;;;;5039853;28;20048;-83
2022/08/27 03:06:56;;;;;;;2.55;1.10;;;17.40;99.90;;;;;;5023365;28;20045;-80
2022/08/27 03:09:21;;;;;;;3.15;1.00;;;17.40;99.90;;;;;;5038253;28;20048;-82
2022/08/27 03:11:47;;;;;;;4.53;1.20;;;17.40;99.90;;;;;;5013828;28;20509;-81
2022/08/27 03:14:13;;;;;;;3.83;1.45;;;17.40;99.90;;;;;;5022605;28;20367;-81
2022/08/27 03:16:39;;;;;;;2.58;1.10;;;17.40;99.90;;;;;;5023823;28;20141;-81
2022/08/27 03:19:06;;;;;;;3.05;1.20;;;17.50;99.90;;;;;;5038623;28;20114;-81
2022/08/27 03:21:33;;;;;;;3.55;1.00;;;17.40;99.90;;;;;;5006150;28;20045;-82
2022/08/27 03:24:00;;;;;;;3.03;1.38;;;17.40;99.90;;;;;;5038799;28;20065;-81
2022/08/27 03:26:27;;;;;;;4.13;1.10;;;17.40;99.90;;;;;;5022404;28;20041;-82
2022/08/27 03:28:53;;;;;;;2.15;1.02;;;17.40;99.90;;;;;;5020752;28;20463;-82
2022/08/27 03:31:25;;;;;;;3.45;1.40;;;17.40;99.90;;;;;;5038767;28;20491;-81
2022/08/27 03:34:00;;;;;;;5.00;1.45;;;17.40;99.90;;;;;;5030051;28;20546;-82
2022/08/27 03:36:28;;;;;;;3.47;1.10;;;17.50;99.90;;;;;;5038634;28;20079;-82
2022/08/27 03:38:55;;;;;;;5.80;1.20;;;17.40;99.90;;;;;;5037589;28;20056;-82
2022/08/27 03:41:22;;;;;;;3.78;1.25;;;17.50;99.90;;;;;;5054293;28;20057;-81
2022/08/27 03:43:51;;;;;;;5.05;1.30;;;17.50;99.90;;;;;;5038146;28;20045;-82
2022/08/27 03:46:19;;;;;;;3.42;1.20;;;17.50;99.90;;;;;;5034141;28;20056;-82
2022/08/27 03:48:46;;;;;;;4.28;1.33;;;17.60;99.90;;;;;;5046714;28;20060;-81
2022/08/27 03:51:13;;;;;;;3.15;1.15;;;17.60;99.90;;;;;;5053137;28;20521;-81
2022/08/27 03:53:41;;;;;;;4.53;1.20;;;17.60;99.90;;;;;;5019645;28;20048;-80
2022/08/27 03:56:07;;;;;;;5.65;1.75;;;17.70;99.90;;;;;;5032981;28;20210;-82
2022/08/27 03:58:35;;;;;;;4.97;1.40;;;17.70;99.90;;;;;;5036693;28;20045;-81
2022/08/27 04:01:03;;;;;;;4.82;1.50;;;17.70;99.90;;;;;;5037601;28;20049;-81
2022/08/27 04:03:29;;;;;;;3.95;1.13;;;17.80;99.90;;;;;;5037844;28;20069;-82
2022/08/27 04:05:56;;;;;;;5.40;1.02;;;17.80;99.90;;;;;;5021226;28;20479;-81
2022/08/27 04:08:23;;;;;;;3.65;1.40;;;17.80;99.90;;;;;;5036827;28;20055;-82
2022/08/27 04:10:50;;;;;;;4.75;1.25;;;17.80;99.90;;;;;;5038081;28;20053;-82
2022/08/27 04:13:16;;;;;;;5.50;1.40;;;17.80;99.90;;;;;;5038125;28;20128;-82
2022/08/27 04:15:43;;;;;;;4.00;1.23;;;17.80;99.90;;;;;;5038223;28;20049;-81
2022/08/27 04:18:10;;;;;;;4.57;1.17;;;17.80;99.90;;;;;;5035446;28;20092;-82
2022/08/27 04:20:36;;;;;;;2.75;1.10;;;17.80;99.90;;;;;;5038665;28;20050;-81
2022/08/27 04:23:03;;;;;;;2.92;1.10;;;17.80;99.90;;;;;;5020544;28;20601;-81
2022/08/27 04:25:28;;;;;;;4.25;1.08;;;17.70;99.90;;;;;;5039013;28;20452;-82
2022/08/27 04:27:54;;;;;;;2.97;1.23;;;17.70;99.90;;;;;;5054290;28;20053;-81
2022/08/27 04:30:20;;;;;;;3.40;1.40;;;17.70;99.90;;;;;;5021458;28;20049;-82
2022/08/27 04:32:45;;;;;;;3.63;1.30;;;17.70;99.90;;;;;;5036424;28;20060;-81
2022/08/27 04:35:11;;;;;;;3.47;1.02;;;17.60;99.90;;;;;;5038959;28;20052;-81
2022/08/27 04:37:39;;;;;;;3.65;1.10;;;17.60;99.90;;;;;;5022083;28;20052;-82
2022/08/27 04:40:05;;;;;;;4.70;1.30;;;17.60;99.90;;;;;;5033320;28;20052;-81
2022/08/27 04:42:31;;;;;;;3.95;1.17;;;17.60;99.90;;;;;;5038276;28;20085;-81
2022/08/27 04:44:57;;;;;;;4.05;1.20;;;17.60;99.90;;;;;;5021175;28;20431;-82
2022/08/27 04:47:22;;;;;;;3.88;1.20;;;17.60;99.90;;;;;;5020687;28;20053;-82
2022/08/27 04:49:48;;;;;;;4.38;1.30;;;17.60;99.90;;;;;;5019028;28;20061;-81
2022/08/27 04:52:14;;;;;;;4.13;1.10;;;17.60;99.90;;;;;;5035856;28;20064;-82
2022/08/27 04:54:40;;;;;;;4.47;1.25;;;17.60;99.90;;;;;;5045247;28;20452;-81
2022/08/27 04:57:07;;;;;;;3.05;1.10;;;17.60;99.90;;;;;;5022188;28;20084;-82
2022/08/27 04:59:33;;;;;;;2.75;1.10;;;17.60;99.90;;;;;;5020917;28;20518;-81
2022/08/27 05:02:01;;;;;;;4.07;1.38;;;17.60;99.90;;;;;;5018160;28;20048;-82
2022/08/27 05:04:28;;;;;;;3.35;1.30;;;17.60;99.90;;;;;;5038079;28;20100;-82
2022/08/27 05:06:54;;;;;;;2.45;1.05;;;17.70;99.90;;;;;;5018553;28;20057;-82
2022/08/27 05:09:20;;;;;;;3.75;1.33;;;17.70;99.90;;;;;;5054314;28;20989;-81
2022/08/27 05:11:46;;;;;;;3.80;1.30;;;17.70;99.90;;;;;;5000925;28;20048;-81
2022/08/27 05:14:14;;;;;;;4.85;1.50;;;17.70;99.90;;;;;;5038801;28;20056;-82
2022/08/27 05:16:40;;;;;;;4.38;1.25;;;17.70;99.90;;;;;;5021159;28;20399;-81
2022/08/27 05:19:08;;;;;;;4.60;1.13;;;17.60;99.90;;;;;;5018751;28;20069;-82
2022/08/27 05:21:37;;;;;;;6.82;1.40;;;17.80;99.90;;;;;;5002730;28;20059;-82
2022/08/27 05:24:04;;;;;;;3.22;1.30;;;17.80;99.90;;;;;;5036578;28;20041;-82
2022/08/27 05:26:32;;;;;;;3.22;1.35;;;17.90;99.90;;;;;;5008790;28;20521;-81
2022/08/27 05:28:59;;;;;;;5.32;1.00;;;17.90;99.90;;;;;;5052438;28;20056;-81
2022/08/27 05:31:26;;;;;;;4.60;1.13;;;17.90;99.90;;;;;;5018565;28;20125;-82
2022/08/27 05:33:54;;;;;;;3.45;1.20;;;17.90;99.90;;;;;;5028488;28;20055;-82
2022/08/27 05:36:26;;;;;;;5.40;1.20;;;18.00;99.90;;;;;;5027677;28;20045;-82
2022/08/27 05:38:54;;;;;;;2.60;0.95;;;18.00;99.90;;;;;;5050248;28;20107;-83
2022/08/27 05:41:26;;;;;;;3.47;1.27;;;18.00;99.90;;;;;;5037021;28;20037;-84
2022/08/27 05:43:53;;;;;;;3.88;1.23;;;18.00;99.90;;;;;;5036912;28;20040;-83
2022/08/27 05:46:21;;;;;;;3.80;1.08;;;18.00;99.90;;;;;;5021700;28;20071;-85
2022/08/27 05:48:49;;;;;;;3.70;1.33;;;18.10;99.90;;;;;;5045029;28;20060;-84
2022/08/27 05:51:27;;;;;;;3.60;1.30;;;18.10;99.90;;;;;;5003597;28;20061;-84
2022/08/27 05:54:02;;;;;;;3.90;1.20;;;18.20;99.90;;;;;;5051963;28;20075;-84
2022/08/27 05:56:33;;;;;;;3.00;1.23;;;18.20;99.90;;;;;;5045654;28;20127;-84
2022/08/27 06:01:50;;;;;;;3.92;1.35;;;18.20;99.90;;;;;;5043174;28;20053;-85
2022/08/27 06:04:17;;;;;;;4.18;1.25;;;18.40;99.90;;;;;;5037668;28;20107;-84
2022/08/27 06:06:43;;;;;;;5.10;1.20;;;18.30;99.90;;;;;;5037029;28;20110;-83
2022/08/27 06:09:12;;;;;;;3.10;1.02;;;18.30;99.90;;;;;;5002869;28;20041;-83
2022/08/27 06:11:39;;;;;;;4.05;1.42;;;18.30;99.90;;;;;;5034890;28;20053;-83
2022/08/27 06:14:05;;;;;;;4.75;1.38;;;18.40;99.90;;;;;;5020568;28;20056;-83
2022/08/27 06:16:31;;;;;;;5.75;1.20;;;18.40;99.90;;;;;;5019562;28;20053;-84
2022/08/27 06:18:57;;;;;;;3.55;1.15;;;18.40;99.90;;;;;;5018917;28;20086;-84
2022/08/27 06:21:24;;;;;;;4.95;1.60;;;17.70;99.90;;;;;;5018374;28;20131;-83
2022/08/27 06:23:50;;;;;;;4.03;0.93;;;18.40;99.90;;;;;;5033447;28;20491;-83
2022/08/27 06:26:18;;;;;;;4.93;1.42;;;18.40;99.90;;;;;;5035522;28;20060;-84
2022/08/27 06:28:44;;;;;;;4.03;1.10;;;18.50;99.90;;;;;;5024592;28;20381;-85
2022/08/27 06:31:23;;;;;;;4.70;1.10;;;18.40;99.90;;;;;;5035621;28;20160;-85
2022/08/27 06:33:50;;;;;;;4.28;1.15;;;18.50;99.90;;;;;;5020567;28;20128;-84
2022/08/27 06:36:21;;;;;;;4.20;1.25;;;18.50;99.90;;;;;;5019873;28;20052;-84
2022/08/27 06:38:47;;;;;;;3.47;1.13;;;18.50;99.90;;;;;;5044643;28;20049;-84
2022/08/27 06:41:14;;;;;;;5.05;1.30;;;18.50;99.90;;;;;;4999238;28;20136;-83
2022/08/27 06:43:41;;;;;;;3.20;1.02;;;18.60;99.90;;;;;;5038687;28;20048;-83
2022/08/27 06:46:10;;;;;;;5.43;1.38;;;18.60;99.90;;;;;;5013109;28;20059;-84
2022/08/27 06:48:39;;;;;;;2.63;1.08;;;18.70;99.90;;;;;;5018899;28;20049;-83
2022/08/27 06:51:17;;;;;;;5.10;1.15;;;18.70;99.90;;;;;;5052531;28;20049;-83
2022/08/27 06:53:46;;;;;;;4.57;1.40;;;18.80;99.90;;;;;;5019043;28;20050;-83
2022/08/27 06:56:12;;;;;;;5.20;1.10;;;19.60;99.90;;;;;;5036176;28;20057;-84
2022/08/27 06:58:41;;;;;;;5.22;1.20;;;19.00;99.90;;;;;;5037152;28;20049;-84
2022/08/27 07:01:19;;;;;;;2.75;0.82;;;18.60;99.90;;;;;;5019972;28;20053;-84
2022/08/27 07:03:45;;;;;;;5.88;1.50;;;19.30;99.90;;;;;;5025025;28;20128;-83
2022/08/27 07:06:13;;;;;;;2.88;1.10;;;19.40;99.90;;;;;;5043516;28;20041;-84
2022/08/27 07:08:39;;;;;;;3.65;1.25;;;19.50;99.90;;;;;;5017466;28;20088;-83
2022/08/27 07:11:07;;;;;;;4.57;1.23;;;19.60;99.90;;;;;;5035204;28;20378;-83
2022/08/27 07:13:34;;;;;;;3.97;1.27;;;19.80;99.90;;;;;;5033897;28;20048;-83
2022/08/27 07:16:14;;;;;;;2.55;1.15;;;20.00;99.90;;;;;;5033200;28;20810;-84
2022/08/27 07:18:40;;;;;;;2.60;0.88;;;20.20;99.90;;;;;;5052455;28;20063;-84
2022/08/27 07:21:07;;;;;;;3.30;1.10;;;20.20;99.90;;;;;;5018315;28;20486;-84
2022/08/27 07:23:35;;;;;;;4.20;1.25;;;20.30;99.90;;;;;;5030598;28;20500;-82
2022/08/27 07:26:04;;;;;;;4.80;1.20;;;20.40;99.90;;;;;;5017305;28;20053;-82
2022/08/27 07:28:30;;;;;;;5.30;1.10;;;20.50;99.90;;;;;;5036987;28;20045;-82
2022/08/27 07:30:56;;;;;;;4.68;1.25;;;20.70;99.90;;;;;;5036039;28;20049;-82
2022/08/27 07:33:24;;;;;;;3.95;1.10;;;20.90;99.90;;;;;;5004179;28;20056;-82
2022/08/27 07:35:50;;;;;;;2.83;0.90;;;21.00;99.90;;;;;;5018758;28;20052;-82
2022/08/27 07:38:16;;;;;;;3.67;1.05;;;21.20;99.90;;;;;;5034850;28;20124;-82
2022/08/27 07:40:42;;;;;;;3.15;0.90;;;21.30;99.90;;;;;;5039614;28;20140;-82
2022/08/27 07:45:55;;;;;;;5.22;1.10;;;21.40;99.90;;;;;;5055235;28;20503;-82
2022/08/27 07:48:25;;;;;;;4.40;1.33;;;21.50;99.90;;;;;;5023708;28;20041;-81
2022/08/27 07:50:51;;;;;;;2.38;0.70;;;21.50;99.90;;;;;;5037201;28;20092;-80
2022/08/27 07:53:18;;;;;;;3.53;1.10;;;21.50;99.90;;;;;;5038859;28;20059;-80
2022/08/27 07:55:44;;;;;;;4.00;1.02;;;21.50;99.90;;;;;;5020018;28;20443;-82
2022/08/27 07:58:10;;;;;;;3.78;1.20;;;21.50;99.90;;;;;;5038841;28;20128;-82
2022/08/27 08:00:36;;;;;;;3.53;0.98;;;21.50;99.90;;;;;;5021804;28;20049;-82
2022/08/27 08:03:01;;;;;;;3.85;0.77;;;21.50;99.90;;;;;;5005916;28;20045;-80
2022/08/27 08:05:30;;;;;;;3.50;0.90;;;21.60;99.90;;;;;;5023865;28;20703;-81
2022/08/27 08:07:56;;;;;;;3.47;0.95;;;21.90;99.90;;;;;;4988408;28;20095;-80
2022/08/27 08:10:22;;;;;;;3.15;0.93;;;22.00;99.90;;;;;;5039755;28;20092;-81
2022/08/27 08:12:48;;;;;;;4.10;0.90;;;22.20;99.90;;;;;;5005983;28;20132;-81
2022/08/27 08:15:16;;;;;;;2.80;0.80;;;22.40;99.90;;;;;;5039211;28;20194;-81
2022/08/27 08:17:42;;;;;;;3.25;1.30;;;22.30;99.90;;;;;;5038460;28;20093;-82
2022/08/27 08:20:10;;;;;;;2.83;1.00;;;22.40;99.90;;;;;;5022421;28;20056;-81
2022/08/27 08:22:35;;;;;;;3.17;0.90;;;22.30;99.90;;;;;;5023550;28;20102;-80
2022/08/27 08:25:01;;;;;;;4.43;1.45;;;22.20;99.90;;;;;;5022244;28;20087;-81
2022/08/27 08:27:27;;;;;;;4.38;1.00;;;22.50;99.90;;;;;;5038123;28;20091;-80
2022/08/27 08:29:53;;;;;;;2.67;0.90;;;22.50;99.90;;;;;;5021923;28;20099;-80
2022/08/27 08:32:20;;;;;;;5.35;1.30;;;22.60;99.90;;;;;;5004536;28;20126;-80
2022/08/27 08:34:45;;;;;;;4.85;1.23;;;22.90;99.90;;;;;;5022542;28;20080;-81
2022/08/27 08:37:13;;;;;;;2.28;0.80;;;23.20;99.90;;;;;;5039314;28;20087;-81
2022/08/27 08:39:39;;;;;;;3.20;0.82;;;23.30;99.90;;;;;;5004917;28;20073;-81
2022/08/27 08:42:09;;;;;;;2.97;0.80;;;23.20;99.90;;;;;;5046215;28;20053;-81
2022/08/27 08:44:47;;;;;;;3.95;0.93;;;23.10;99.90;;;;;;5030136;28;20102;-81
2022/08/27 08:47:15;;;;;;;3.20;0.80;;;23.00;99.90;;;;;;5037167;28;20136;-82
2022/08/27 08:49:57;;;;;;;3.45;0.80;;;22.90;99.90;;;;;;5036784;28;20502;-81
2022/08/27 08:52:51;;;;;;;3.45;1.17;;;23.10;99.90;;;;;;5036235;28;20058;-81
2022/08/27 08:55:42;;;;;;;3.22;1.02;;;23.50;99.90;;;;;;5038529;28;20052;-81
2022/08/27 08:58:14;;;;;;;4.40;1.40;;;23.80;99.90;;;;;;5037127;28;20045;-82
2022/08/27 09:00:42;;;;;;;2.38;0.75;;;24.10;99.90;;;;;;5037209;28;20059;-82
2022/08/27 09:03:11;;;;;;;4.65;1.08;;;24.20;99.90;;;;;;5037357;28;20049;-81
2022/08/27 09:05:43;;;;;;;3.30;0.82;;;24.10;99.90;;;;;;5036803;28;20107;-82
2022/08/27 09:08:20;;;;;;;3.00;0.80;;;24.10;99.90;;;;;;5028202;28;20075;-82
2022/08/27 09:11:12;;;;;;;6.03;0.90;;;24.30;99.90;;;;;;5036833;28;20406;-82
2022/08/27 09:14:09;;;;;;;3.67;0.75;;;24.30;99.90;;;;;;5020163;28;20053;-82
2022/08/27 09:16:37;;;;;;;3.15;1.00;;;24.60;99.90;;;;;;4987472;28;20066;-82
2022/08/27 09:19:05;;;;;;;3.70;0.98;;;24.90;99.50;;;;;;5020518;28;20060;-82
2022/08/27 09:21:43;;;;;;;3.17;0.90;;;25.10;98.80;;;;;;5035709;28;20073;-82
2022/08/27 09:24:28;;;;;;;2.83;0.80;;;25.30;98.20;;;;;;5036892;28;20124;-82
2022/08/27 09:26:54;;;;;;;4.07;0.90;;;25.60;98.30;;;;;;5038396;28;20149;-82
2022/08/27 09:29:26;;;;;;;3.50;0.95;;;25.80;98.20;;;;;;5021053;28;20542;-82
2022/08/27 09:31:55;;;;;;;5.00;0.90;;;26.00;97.30;;;;;;5036009;28;20081;-82
2022/08/27 09:34:22;;;;;;;2.83;0.70;;;26.10;97.10;;;;;;5027687;28;20111;-82
2022/08/27 09:36:54;;;;;;;1.85;0.80;;;26.30;96.60;;;;;;5052753;28;20450;-82
2022/08/27 09:39:27;;;;;;;4.18;1.00;;;26.60;96.60;;;;;;5035969;28;20096;-81
2022/08/27 09:41:53;;;;;;;3.65;0.80;;;26.80;96.00;;;;;;5036785;28;20050;-81
2022/08/27 09:44:21;;;;;;;2.05;0.77;;;26.80;95.80;;;;;;5036023;28;20053;-82
2022/08/27 09:46:58;;;;;;;3.78;0.80;;;26.80;95.40;;;;;;5038309;28;20072;-82
2022/08/27 09:49:25;;;;;;;3.95;1.10;;;26.60;95.10;;;;;;5035797;28;20049;-80
2022/08/27 09:51:52;;;;;;;5.70;1.30;;;26.30;95.60;;;;;;5027990;28;20421;-80
2022/08/27 09:54:35;;;;;;;3.90;1.15;;;26.10;95.80;;;;;;5018230;28;20045;-80
2022/08/27 09:57:01;;;;;;;4.50;1.05;;;26.10;95.70;;;;;;5027707;28;20083;-80
2022/08/27 09:59:36;;;;;;;4.40;0.90;;;26.00;96.10;;;;;;4994861;28;20076;-80
2022/08/27 10:02:14;;;;;;;2.80;0.87;;;25.70;96.00;;;;;;5051619;28;20059;-80
2022/08/27 10:04:46;;;;;;;4.03;1.20;;;25.50;96.50;;;;;;5038562;28;20087;-80
2022/08/27 10:07:37;;;;;;;3.53;0.95;;;25.20;96.20;;;;;;5036337;28;20045;-80
2022/08/27 10:10:35;;;;;;;5.45;1.10;;;25.30;96.30;;;;;;5044921;28;20049;-80
2022/08/27 10:13:15;;;;;;;3.75;0.90;;;25.20;96.50;;;;;;5045223;28;20072;-80
2022/08/27 10:16:05;;;;;;;3.10;0.90;;;25.50;96.70;;;;;;5020701;28;20075;-80
2022/08/27 10:18:55;;;;;;;3.92;0.85;;;25.80;96.30;;;;;;5036910;28;20056;-80
2022/08/27 10:21:57;;;;;;;4.32;0.90;;;26.00;96.20;;;;;;5036433;28;20048;-80
2022/08/27 10:24:31;;;;;;;4.55;0.75;;;26.30;94.80;;;;;;4988830;28;20045;-80
2022/08/27 10:27:24;;;;;;;6.10;1.10;;;26.50;95.40;;;;;;5019726;28;20045;-80
2022/08/27 10:30:06;;;;;;;3.42;0.70;;;26.60;94.20;;;;;;5037248;28;20068;-80
2022/08/27 10:32:44;;;;;;;3.42;0.73;;;26.70;94.00;;;;;;5019869;28;20128;-80
2022/08/27 10:35:20;;;;;;;3.95;0.90;;;26.80;93.90;;;;;;5037593;28;20128;-81
2022/08/27 10:37:46;;;;;;;3.30;0.90;;;26.60;93.10;;;;;;5045558;28;20060;-79
2022/08/27 10:40:34;;;;;;;3.83;0.90;;;26.30;93.40;;;;;;5035428;28;20049;-80
2022/08/27 10:43:31;;;;;;;2.83;0.65;;;26.10;93.60;;;;;;5035912;28;20160;-80
2022/08/27 10:46:21;;;;;;;4.18;0.80;;;25.80;92.90;;;;;;5052866;28;20048;-80
2022/08/27 10:48:56;;;;;;;2.10;0.90;;;25.80;93.70;;;;;;5036512;28;20053;-80
2022/08/27 10:51:30;;;;;;;5.43;1.20;;;26.00;93.70;;;;;;5035733;28;20045;-80
2022/08/27 10:54:15;;;;;;;2.95;0.70;;;26.00;93.50;;;;;;5035123;28;20064;-80
2022/08/27 10:57:07;;;;;;;5.18;1.00;;;26.30;93.30;;;;;;5035610;28;20045;-80
2022/08/27 11:00:00;;;;;;;3.67;0.82;;;26.40;92.70;;;;;;5044388;28;20056;-80
2022/08/27 11:02:48;;;;;;;3.05;0.70;;;26.70;92.90;;;;;;5036001;28;20060;-80
2022/08/27 11:05:22;;;;;;;5.43;0.80;;;26.80;92.30;;;;;;5034115;28;20069;-80
2022/08/27 11:07:53;;;;;;;3.30;0.77;;;26.70;92.10;;;;;;5020279;28;20096;-80
2022/08/27 11:10:27;;;;;;;5.03;0.95;;;26.60;92.50;;;;;;5018303;28;20056;-80
2022/08/27 11:13:04;;;;;;;2.88;0.70;;;26.80;92.40;;;;;;5037540;28;20103;-80
2022/08/27 11:15:34;;;;;;;2.35;0.80;;;26.80;92.20;;;;;;5045397;28;20056;-81
2022/08/27 11:18:22;;;;;;;3.50;0.70;;;26.60;91.70;;;;;;5036960;28;20053;-80
2022/08/27 11:21:04;;;;;;;4.15;0.90;;;26.80;91.50;;;;;;5039306;28;20110;-80
2022/08/27 11:23:42;;;;;;;3.35;0.90;;;26.80;91.40;;;;;;5029543;28;20064;-80
2022/08/27 11:26:08;;;;;;;3.88;0.85;;;27.00;91.00;;;;;;5035292;28;20049;-81
2022/08/27 11:28:40;;;;;;;2.83;0.70;;;27.20;91.00;;;;;;5023394;28;20033;-80
2022/08/27 11:31:09;;;;;;;3.42;0.77;;;27.20;90.50;;;;;;5038941;28;20092;-80
2022/08/27 11:34:19;;;;;;;4.32;0.80;;;27.20;90.50;;;;;;5039108;28;20053;-81
2022/08/27 11:37:03;;;;;;;2.88;0.88;;;27.40;88.00;;;;;;4997638;28;20079;-81
2022/08/27 11:39:50;;;;;;;4.10;0.90;;;27.80;90.00;;;;;;5036104;28;20061;-81
2022/08/27 11:42:40;;;;;;;3.10;0.80;;;27.90;88.80;;;;;;5037945;28;20052;-82
2022/08/27 11:45:16;;;;;;;3.58;0.82;;;28.10;88.50;;;;;;5048188;28;20037;-82
2022/08/27 11:47:54;;;;;;;3.92;0.80;;;28.30;87.30;;;;;;5022595;28;20057;-82
2022/08/27 11:50:23;;;;;;;4.53;1.02;;;28.60;85.10;;;;;;5038418;28;20037;-81
2022/08/27 11:53:01;;;;;;;4.88;0.90;;;28.30;85.10;;;;;;5020001;28;20069;-81
2022/08/27 11:55:31;;;;;;;3.80;1.05;;;28.10;84.10;;;;;;5038860;28;20122;-81
2022/08/27 11:58:22;;;;;;;3.97;0.90;;;28.00;84.80;;;;;;5037850;28;20454;-81
2022/08/27 12:00:53;;;;;;;2.28;0.90;;;28.10;83.80;;;;;;5037604;28;20197;-81
2022/08/27 12:03:18;;;;;;;4.43;1.35;;;28.10;84.50;;;;;;5038465;28;20053;-81
2022/08/27 12:06:09;;;;;;;2.65;0.80;;;28.40;84.30;;;;;;5031582;28;20052;-81
2022/08/27 12:08:36;;;;;;;2.38;0.93;;;28.60;81.00;;;;;;5029955;28;20604;-81
2022/08/27 12:11:35;;;;;;;5.13;1.40;;;28.90;82.20;;;;;;5038583;28;20820;-82
2022/08/27 12:14:38;;;;;;;2.60;1.05;;;28.80;79.70;;;;;;5020518;28;20120;-82
2022/08/27 12:17:27;;;;;;;5.15;1.10;;;28.70;79.40;;;;;;5037933;28;20060;-81
2022/08/27 12:20:24;;;;;;;3.88;1.20;;;29.10;79.90;;;;;;5038071;28;20145;-81
2022/08/27 12:26:27;;;;;;;4.13;1.50;;;29.20;78.10;;;;;;5038795;28;20049;-82
2022/08/27 12:29:16;;;;;;;4.32;1.42;;;28.80;77.70;;;;;;5046035;28;20052;-82
2022/08/27 12:31:47;;;;;;;3.05;1.38;;;29.00;78.40;;;;;;5016648;28;20110;-81
2022/08/27 12:34:18;;;;;;;4.07;1.23;;;29.10;79.20;;;;;;5033241;28;20056;-81
2022/08/27 12:36:48;;;;;;;3.58;1.30;;;29.00;77.80;;;;;;5036314;28;20045;-80
2022/08/27 12:39:17;;;;;;;4.30;1.30;;;29.00;78.50;;;;;;5038407;28;20049;-81
2022/08/27 12:41:46;;;;;;;3.00;1.23;;;28.70;78.80;;;;;;5036178;28;20271;-80
2022/08/27 12:44:21;;;;;;;4.72;1.40;;;28.40;79.10;;;;;;5035933;28;20044;-81
2022/08/27 12:46:51;;;;;;;3.38;1.20;;;28.50;79.90;;;;;;5007373;28;20050;-82
2022/08/27 12:49:21;;;;;;;4.03;1.38;;;28.00;80.10;;;;;;5007349;28;20048;-80
2022/08/27 12:51:50;;;;;;;3.05;1.58;;;27.90;80.60;;;;;;5020771;28;20053;-82
2022/08/27 12:54:49;;;;;;;3.38;1.17;;;28.00;80.50;;;;;;4990789;28;20128;-82
2022/08/27 12:57:27;;;;;;;3.95;1.35;;;28.20;77.80;;;;;;5013876;28;20054;-81
2022/08/27 13:00:14;;;;;;;4.45;1.75;;;28.40;79.00;;;;;;5033033;28;20060;-81
2022/08/27 13:03:10;;;;;;;4.25;1.48;;;28.40;77.50;;;;;;5032463;28;20080;-81
2022/08/27 13:05:41;;;;;;;3.90;1.40;;;28.60;77.70;;;;;;5028465;28;20297;-80
2022/08/27 13:08:36;;;;;;;5.00;1.10;;;28.50;77.80;;;;;;5030080;28;20049;-80
2022/08/27 13:11:16;;;;;;;4.90;1.13;;;28.50;75.40;;;;;;5022115;28;20049;-81
2022/08/27 13:13:42;;;;;;;4.28;1.15;;;28.40;77.50;;;;;;5048579;28;20126;-82
2022/08/27 13:16:08;;;;;;;3.28;1.17;;;28.10;77.80;;;;;;5014783;28;20054;-82
2022/08/27 13:18:35;;;;;;;5.70;1.33;;;28.10;78.20;;;;;;5027887;28;20241;-81